Latest Weather Observations for Barrow Island

IDW60801

Issued at 3:05 pm WST Tuesday 16 September 2014 (issued every 30 minutes, with the page automatically refreshed every 10 minutes)

About weather observations | Map of weather stations | Latest weather observations for WA | Other Formats
Station Details ID: 005094 Name: BARROW ISLAND AIRPORT Lat: -20.88 Lon: 115.41 Height: 6.4 m
Data from the previous 72 hours. | See also: Recent months at Barrow Island
Date/Time
WST
Temp
°C
App
Temp
°C
Dew
Point
Rel
Hum
%
Delta-T
°C
Wind Press
QNH
hPa
Press
MSL
hPa
Rain
since 9 am
mm
Dir
 
Spd
km/h
Gust
km/h
Spd
kts
Gust
kts
16/03:00pm 26.2 25.9 19.1 65 4.6 SW 19 24 10 13 1011.3 1011.3 0.0
16/02:30pm 25.6 25.5 19.5 69 3.9 SSW 19 24 10 13 1011.3 - 0.0
16/02:00pm 25.4 24.6 19.3 69 3.9 S 22 26 12 14 1011.6 - 0.0
16/01:30pm 25.9 25.7 19.3 67 4.2 SSW 19 24 10 13 1011.9 - 0.0
16/01:00pm 25.4 25.2 19.3 69 3.9 S 19 24 10 13 1012.3 - 0.0
16/12:30pm 25.5 25.3 19.4 69 3.9 S 19 24 10 13 1012.6 - 0.0
16/12:00pm 25.0 24.8 18.4 66 4.2 S 17 20 9 11 1012.9 1012.9 0.0
16/11:30am 24.8 24.8 19.0 70 3.7 S 17 20 9 11 1013.1 - 0.0
16/11:00am 24.9 25.4 19.3 71 3.6 S 15 19 8 10 1013.5 - 0.0
16/10:30am 24.4 24.3 18.8 71 3.6 S 17 22 9 12 1013.8 - 0.0
16/10:00am 24.3 24.3 18.9 72 3.4 S 17 20 9 11 1013.8 - 0.0
16/09:30am 23.7 23.5 18.6 73 3.2 S 17 20 9 11 1014.1 - 0.0
16/09:00am 23.3 22.9 18.8 76 2.8 S 19 22 10 12 1014.1 1014.1 0.0
16/08:30am 22.9 22.3 18.4 76 2.8 S 19 20 10 11 1014.0 - 0.0
16/08:00am 22.4 21.1 18.2 77 2.6 S 22 26 12 14 1013.7 - 0.0
16/07:30am 22.0 20.7 18.2 79 2.4 S 22 26 12 14 1013.4 - 0.0
16/07:00am 21.8 19.9 18.6 82 2.0 S 26 30 14 16 1013.0 - 0.0
16/06:30am 21.7 20.3 18.7 83 1.9 S 24 26 13 14 1013.0 - 0.0
16/06:00am 21.7 20.6 18.7 83 1.9 S 22 26 12 14 1012.9 1012.9 0.0
16/05:30am 21.9 20.9 18.9 83 1.9 S 22 28 12 15 1012.6 - 0.0
16/05:00am 21.9 20.1 18.7 82 2.0 S 26 32 14 17 1012.2 - 0.0
16/04:30am 22.1 20.5 19.1 83 1.9 S 26 30 14 16 1012.1 - 0.0
16/04:00am 22.3 21.2 19.5 84 1.8 SSW 24 30 13 16 1011.9 - 0.0
16/03:30am 22.4 20.9 19.4 83 1.9 SW 26 28 14 15 1012.0 - 0.0
16/03:00am 22.5 21.2 19.1 81 2.2 SW 24 28 13 15 1012.0 1012.0 0.0
16/02:30am 22.7 21.0 18.9 79 2.4 SW 26 32 14 17 1012.0 - 0.0
16/02:00am 22.6 20.4 18.6 78 2.5 SW 28 32 15 17 1012.0 - 0.0
16/01:30am 22.8 20.6 18.8 78 2.5 SSW 28 32 15 17 1012.2 - 0.0
16/01:00am 22.8 20.0 19.0 79 2.4 SSW 32 35 17 19 1012.6 - 0.0
16/12:30am 23.0 20.4 19.4 80 2.3 SW 32 37 17 20 1012.8 - 0.0
16/12:00am 22.7 19.5 18.5 77 2.6 SW 33 39 18 21 1012.8 1012.8 0.0
 
Date/Time
WST
Temp
°C
App
Temp
°C
Dew
Point
Rel
Hum
%
Delta-T
°C
Wind Press
QNH
hPa
Press
MSL
hPa
Rain
since 9 am
mm
Dir
 
Spd
km/h
Gust
km/h
Spd
kts
Gust
kts
15/11:30pm 22.7 19.0 18.3 76 2.8 SW 35 43 19 23 1012.9 - 0.0
15/11:00pm 22.7 18.9 18.0 75 2.9 SW 35 43 19 23 1013.2 - 0.0
15/10:30pm 23.1 20.0 18.4 75 3.0 SW 32 39 17 21 1013.4 - 0.0
15/10:00pm 23.3 21.0 18.4 74 3.1 SW 28 35 15 19 1013.2 - 0.0
15/09:30pm 23.3 20.9 18.2 73 3.2 WSW 28 35 15 19 1013.3 - 0.0
15/09:00pm 23.7 21.4 18.4 72 3.3 WSW 28 35 15 19 1013.3 1013.3 0.0
15/08:30pm 23.9 21.4 18.1 70 3.6 WSW 28 35 15 19 1013.0 - 0.0
15/08:00pm 24.4 20.9 16.6 61 4.8 WSW 30 37 16 20 1012.7 - 0.0
15/07:30pm 24.5 21.2 17.0 63 4.6 WSW 30 37 16 20 1012.2 - 0.0
15/07:00pm 24.6 21.4 17.3 64 4.5 WSW 30 37 16 20 1012.2 - 0.0
15/06:30pm 24.9 21.6 16.9 61 4.9 WSW 30 35 16 19 1011.9 - 0.0
15/06:00pm 25.4 21.8 17.1 60 5.2 WSW 32 37 17 20 1011.8 1011.8 0.0
15/05:30pm 26.3 22.5 16.8 56 5.9 WSW 32 39 17 21 1011.6 - 0.0
15/05:00pm 27.0 23.1 16.9 54 6.3 WSW 33 44 18 24 1011.4 - 0.0
15/04:30pm 27.8 23.3 15.5 47 7.5 WSW 33 43 18 23 1011.2 - 0.0
15/04:00pm 28.4 23.0 13.9 41 8.7 WSW 35 43 19 23 1011.3 - 0.0
15/03:30pm 28.9 23.3 13.2 38 9.3 WSW 35 43 19 23 1011.4 - 0.0
15/03:00pm 29.1 23.9 14.5 41 8.8 WSW 35 43 19 23 1011.6 1011.6 0.0
15/02:30pm 29.4 24.7 14.8 41 8.9 WSW 33 41 18 22 1011.7 - 0.0
15/02:00pm 29.2 24.2 13.4 38 9.4 WSW 32 39 17 21 1011.9 - 0.0
15/01:30pm 29.4 24.9 15.5 43 8.5 WSW 33 41 18 22 1012.2 - 0.0
15/01:00pm 28.8 25.5 17.0 49 7.4 SW 30 37 16 20 1012.6 - 0.0
15/12:30pm 27.8 25.3 18.8 58 5.8 SW 30 35 16 19 1012.7 - 0.0
15/12:00pm 27.4 24.6 18.1 57 5.9 SW 30 35 16 19 1012.9 1012.9 0.0
15/11:30am 26.8 23.9 18.9 62 5.1 SSW 32 37 17 20 1013.2 - 0.0
15/11:00am 26.5 23.1 17.6 58 5.6 SSW 32 37 17 20 1013.7 - 0.0
15/10:30am 26.7 24.3 18.3 60 5.3 SW 28 32 15 17 1014.3 - 0.0
15/10:00am 26.2 23.5 17.6 59 5.4 SW 28 35 15 19 1014.4 - 0.0
15/09:30am 25.4 22.4 17.8 62 4.8 SW 30 33 16 18 1014.5 - 0.0
15/09:00am 25.1 21.9 16.3 58 5.4 SW 28 33 15 18 1014.5 1014.5 0.0
15/08:30am 24.8 22.6 16.8 61 4.9 SW 24 30 13 16 1014.5 - 0.0
15/08:00am 24.2 21.6 15.9 59 5.0 SW 24 28 13 15 1014.4 - 0.0
15/07:30am 23.4 21.0 16.4 64 4.3 S 24 30 13 16 1013.9 - 0.0
15/07:00am 23.2 20.7 17.0 68 3.8 S 26 32 14 17 1013.7 - 0.0
15/06:30am 22.8 19.3 16.6 68 3.8 S 30 33 16 18 1013.7 - 0.0
15/06:00am 22.7 19.4 16.9 70 3.6 S 30 33 16 18 1013.5 1013.5 0.0
15/05:30am 22.8 20.0 17.3 71 3.4 S 28 33 15 18 1013.8 - 0.0
15/05:00am 22.7 19.3 16.7 69 3.7 S 30 35 16 19 1013.5 - 0.0
15/04:30am 23.0 19.7 17.0 69 3.7 S 30 35 16 19 1013.4 - 0.0
15/04:00am 23.1 20.3 17.3 70 3.6 S 28 32 15 17 1013.4 - 0.0
15/03:30am 23.2 20.0 17.2 69 3.7 S 30 35 16 19 1013.6 - 0.0
15/03:00am 23.5 19.5 16.3 64 4.4 S 32 37 17 20 1013.8 1013.8 0.0
15/02:30am 23.7 19.5 16.2 63 4.6 S 33 39 18 21 1013.9 - 0.0
15/02:00am 23.6 19.9 16.9 66 4.1 S 32 37 17 20 1013.9 - 0.0
15/01:30am 23.9 20.3 17.6 68 3.9 SSW 33 43 18 23 1013.8 - 0.0
15/01:00am 23.9 20.6 17.9 69 3.8 SSW 32 39 17 21 1013.8 - 0.0
15/12:30am 24.0 20.4 17.7 68 3.9 SSW 33 39 18 21 1014.1 - 0.0
15/12:00am 24.3 20.5 18.0 68 4.0 SSW 35 41 19 22 1014.2 1014.2 0.0
 
Date/Time
WST
Temp
°C
App
Temp
°C
Dew
Point
Rel
Hum
%
Delta-T
°C
Wind Press
QNH
hPa
Press
MSL
hPa
Rain
since 9 am
mm
Dir
 
Spd
km/h
Gust
km/h
Spd
kts
Gust
kts
14/11:30pm 24.3 20.8 17.8 67 4.1 SSW 33 39 18 21 1014.5 - 0.0
14/11:00pm 24.3 20.2 17.3 65 4.3 SSW 35 41 19 22 1014.3 - 0.0
14/10:30pm 24.3 20.8 18.7 71 3.6 SSW 35 41 19 22 1014.4 - 0.0
14/10:00pm 24.1 19.9 18.1 69 3.8 SSW 37 43 20 23 1014.3 - 0.0
14/09:30pm 24.2 20.5 17.4 65 4.2 SSW 33 41 18 22 1014.5 - 0.0
14/09:00pm 24.5 20.1 16.7 61 4.8 SSW 35 41 19 22 1014.4 1014.4 0.0
14/08:30pm 24.3 20.7 17.1 64 4.5 SW 32 37 17 20 1014.3 - 0.0
14/08:00pm 24.6 21.9 16.6 61 4.9 SW 26 32 14 17 1014.3 - 0.0
14/07:30pm 24.7 20.8 16.4 60 5.1 SW 32 39 17 21 1013.9 - 0.0
14/07:00pm 24.8 21.5 17.0 62 4.8 SW 30 35 16 19 1013.7 - 0.0
14/06:30pm 24.9 21.3 17.1 62 4.8 SW 32 39 17 21 1013.3 - 0.0
14/06:00pm 25.3 21.8 17.5 62 4.9 SW 32 39 17 21 1013.1 1013.1 0.0
14/05:30pm 26.2 22.3 17.0 57 5.7 SW 33 41 18 22 1013.1 - 0.0
14/05:00pm 27.1 22.8 15.8 50 6.9 SW 33 41 18 22 1012.9 - 0.0
14/04:30pm 27.7 23.1 16.0 49 7.2 SW 35 46 19 25 1012.8 - 0.0
14/04:00pm 27.4 23.0 16.7 52 6.7 SW 35 44 19 24 1012.9 - 0.0
14/03:30pm 27.0 24.0 19.1 62 5.1 SW 33 41 18 22 1013.1 - 0.0
14/03:00pm 27.1 24.9 20.4 66 4.4 SW 32 39 17 21 1013.4 1013.4 0.0
14/02:30pm 27.1 25.2 19.4 62 5.0 SW 28 33 15 18 1013.5 - 0.0
14/02:00pm 28.6 26.3 17.5 51 7.0 SW 26 32 14 17 1013.6 - 0.0
14/01:30pm 28.3 25.6 16.6 49 7.3 SW 26 30 14 16 1013.9 - 0.0
14/01:00pm 28.1 26.1 16.4 49 7.3 SSW 22 28 12 15 1014.4 - 0.0
14/12:30pm 27.4 25.9 17.6 55 6.2 SSW 22 26 12 14 1014.8 - 0.0
14/12:00pm 27.4 26.1 17.3 54 6.3 SSW 20 24 11 13 1015.1 1015.1 0.0
14/11:30am 27.1 25.6 17.8 56 5.9 SSW 22 26 12 14 1015.6 - 0.0
14/11:00am 26.4 24.9 18.5 62 5.0 SSW 24 30 13 16 1015.9 - 0.0
14/10:30am 26.2 24.4 17.8 60 5.3 SSW 24 28 13 15 1016.2 - 0.0
14/10:00am 26.0 24.9 18.7 64 4.7 SSW 22 24 12 13 1016.2 - 0.0
14/09:30am 25.7 24.7 18.9 66 4.3 SSW 22 26 12 14 1016.1 - 0.0
14/09:00am 25.3 24.5 18.5 66 4.3 SSW 20 26 11 14 1016.1 1016.1 0.2
14/08:30am 24.7 23.8 18.2 67 4.1 SSW 20 24 11 13 1016.1 - 0.2
14/08:00am 24.2 23.4 18.4 70 3.7 SSW 20 24 11 13 1015.9 - 0.2
14/07:30am 23.3 22.5 18.0 72 3.3 SSW 19 20 10 11 1015.7 - 0.2
14/07:00am 22.8 21.6 17.5 72 3.3 SSW 20 26 11 14 1015.5 - 0.2
14/06:30am 21.6 21.4 16.6 73 3.0 W 13 24 7 13 1015.4 - 0.2
14/06:00am 21.6 20.9 17.4 77 2.6 SW 17 22 9 12 1015.2 1015.2 0.2
14/05:30am 21.7 20.6 17.3 76 2.7 SW 19 22 10 12 1015.1 - 0.2
14/05:00am 22.7 21.2 17.6 73 3.2 S 22 24 12 13 1014.5 - 0.2
14/04:30am 23.0 21.9 18.7 77 2.7 SSW 22 24 12 13 1014.4 - 0.2
14/04:00am 23.3 22.6 18.2 73 3.2 SSW 19 28 10 15 1014.3 - 0.2
14/03:30am 23.4 20.3 18.5 74 3.1 S 32 37 17 20 1014.0 - 0.2
14/03:00am 23.6 20.9 19.3 77 2.7 S 32 35 17 19 1014.2 1014.2 0.2
14/02:30am 24.0 21.6 19.1 74 3.1 SSW 30 35 16 19 1014.3 - 0.2
14/02:00am 23.9 24.0 18.3 71 3.5 S 15 20 8 11 1015.1 - 0.2
14/01:30am 24.5 22.1 18.2 68 4.0 SSW 28 32 15 17 1014.5 - 0.2
14/01:00am 24.3 22.3 18.2 68 3.8 SSW 26 32 14 17 1014.8 - 0.2
14/12:30am 24.5 22.1 18.2 68 4.0 SSW 28 32 15 17 1014.9 - 0.2
14/12:00am 24.6 21.9 18.5 69 3.9 SSW 30 35 16 19 1015.1 1015.1 0.2
 
Date/Time
WST
Temp
°C
App
Temp
°C
Dew
Point
Rel
Hum
%
Delta-T
°C
Wind Press
QNH
hPa
Press
MSL
hPa
Rain
since 9 am
mm
Dir
 
Spd
km/h
Gust
km/h
Spd
kts
Gust
kts
13/11:30pm 24.7 21.6 18.4 68 4.0 SSW 32 37 17 20 1015.1 - 0.2
13/11:00pm 24.5 21.7 18.2 68 4.0 SSW 30 33 16 18 1015.1 - 0.2
13/10:30pm 24.0 21.1 18.0 69 3.8 SSW 30 35 16 19 1015.2 - 0.2
13/10:00pm 23.9 21.1 18.1 70 3.6 SSW 30 33 16 18 1015.4 - 0.2
13/09:30pm 23.6 22.1 18.5 73 3.2 SW 24 30 13 16 1015.6 - 0.2
13/09:00pm 23.6 22.8 18.5 73 3.2 SW 20 24 11 13 1015.5 1015.5 0.2
13/08:30pm 23.6 22.8 18.5 73 3.2 SW 20 24 11 13 1015.4 - 0.2
13/08:00pm 23.8 22.9 18.2 71 3.5 SW 20 24 11 13 1015.2 - 0.2
13/07:30pm 23.8 23.0 18.0 70 3.6 SW 19 20 10 11 1015.1 - 0.2
13/07:00pm 23.9 23.3 17.6 68 3.9 SW 17 19 9 10 1014.9 - 0.2
13/06:30pm 24.4 23.3 17.4 65 4.4 SSW 19 20 10 11 1014.7 - 0.2
13/06:00pm 25.1 23.4 17.3 62 4.9 SSW 22 24 12 13 1014.6 1014.6 0.2
13/05:30pm 25.7 23.6 17.1 59 5.3 SSW 24 30 13 16 1014.4 - 0.2
13/05:00pm 26.1 23.8 16.6 55 5.9 SW 24 30 13 16 1014.4 - 0.2
13/04:30pm 26.7 24.4 17.7 57 5.7 SW 26 32 14 17 1014.4 - 0.2
13/04:00pm 26.5 23.3 17.3 57 5.8 SW 30 32 16 17 1014.3 - 0.2
13/03:30pm 26.6 24.4 17.9 59 5.5 SW 26 32 14 17 1014.4 - 0.2

Other Formats:

Comma delimited format used in spreadsheet applications
http://www.bom.gov.au/fwo/IDW60801/IDW60801.95304.axf

JavaScript Object Notation format (JSON) in row-major order
http://www.bom.gov.au/fwo/IDW60801/IDW60801.95304.json